createdAt,value
2022-10-23T00:01:51.771Z,9.60
2022-10-23T00:04:25.212Z,7.80
2022-10-23T00:06:53.588Z,9.40
2022-10-23T00:09:24.921Z,8.60
2022-10-23T00:11:54.370Z,10.20
2022-10-23T00:14:25.769Z,11.60
2022-10-23T00:16:54.359Z,8.60
2022-10-23T00:19:23.053Z,16.20
2022-10-23T00:21:51.503Z,11.40
2022-10-23T00:24:20.302Z,11.80
2022-10-23T00:26:50.498Z,15.00
2022-10-23T00:29:19.206Z,10.00
2022-10-23T00:31:49.062Z,10.80
2022-10-23T00:34:19.880Z,8.80
2022-10-23T00:36:48.433Z,10.00
2022-10-23T00:39:17.105Z,12.00
2022-10-23T00:41:45.446Z,10.60
2022-10-23T00:44:46.992Z,9.00
2022-10-23T00:47:16.951Z,9.40
2022-10-23T00:49:45.865Z,11.40
2022-10-23T00:52:15.366Z,8.40
2022-10-23T00:54:45.629Z,8.60
2022-10-23T00:57:16.899Z,6.40
2022-10-23T00:59:45.633Z,7.60
2022-10-23T01:02:14.539Z,5.60
2022-10-23T01:04:44.805Z,9.00
2022-10-23T01:07:18.657Z,8.80
2022-10-23T01:09:54.983Z,9.00
2022-10-23T01:12:35.557Z,9.40
2022-10-23T01:15:11.084Z,11.60
2022-10-23T01:17:44.737Z,9.60
2022-10-23T01:20:29.646Z,7.20
2022-10-23T01:23:15.746Z,9.80
2022-10-23T01:26:03.671Z,7.00
2022-10-23T01:28:40.978Z,7.60
2022-10-23T01:31:15.543Z,7.60
2022-10-23T01:33:48.140Z,9.60
2022-10-23T01:36:29.311Z,8.40
2022-10-23T01:39:06.275Z,8.20
2022-10-23T01:41:40.715Z,7.60
2022-10-23T01:44:17.378Z,7.60
2022-10-23T01:46:49.105Z,7.40
2022-10-23T01:49:20.684Z,8.00
2022-10-23T01:51:58.003Z,10.60
2022-10-23T01:54:30.750Z,7.60
2022-10-23T01:57:00.522Z,8.00
2022-10-23T01:59:37.179Z,7.60
2022-10-23T02:02:08.467Z,7.80
2022-10-23T02:04:41.963Z,8.00
2022-10-23T02:07:10.738Z,8.00
2022-10-23T02:09:39.292Z,11.00
2022-10-23T02:12:10.461Z,7.00
2022-10-23T02:14:49.549Z,8.00
2022-10-23T02:17:27.269Z,7.00
2022-10-23T02:20:03.908Z,8.20
2022-10-23T02:22:39.060Z,7.00
2022-10-23T02:25:13.212Z,5.20
2022-10-23T02:27:47.334Z,6.00
2022-10-23T02:30:20.965Z,7.40
2022-10-23T02:32:58.686Z,7.00
2022-10-23T02:35:27.805Z,7.00
2022-10-23T02:38:29.895Z,6.60
2022-10-23T02:41:02.407Z,7.80
2022-10-23T02:43:40.577Z,7.40
2022-10-23T02:46:18.340Z,9.20
2022-10-23T02:48:55.131Z,6.80
2022-10-23T02:51:33.318Z,6.60
2022-10-23T02:54:09.604Z,8.40
2022-10-23T02:56:45.516Z,8.00
2022-10-23T02:59:24.757Z,9.20
2022-10-23T03:02:03.883Z,6.20
2022-10-23T03:04:34.100Z,6.60
2022-10-23T03:07:02.856Z,7.40
2022-10-23T03:09:32.516Z,7.20
2022-10-23T03:12:01.082Z,10.00
2022-10-23T03:14:34.905Z,7.00
2022-10-23T03:17:06.347Z,9.00
2022-10-23T03:19:35.068Z,6.80
2022-10-23T03:22:06.499Z,7.20
2022-10-23T03:24:35.233Z,8.40
2022-10-23T03:27:03.801Z,9.80
2022-10-23T03:29:34.217Z,8.60
2022-10-23T03:32:02.599Z,7.00
2022-10-23T03:34:32.497Z,7.00
2022-10-23T03:37:03.302Z,9.40
2022-10-23T03:39:33.750Z,7.40
2022-10-23T03:42:02.713Z,7.60
2022-10-23T03:44:32.223Z,10.00
2022-10-23T03:47:00.917Z,7.00
2022-10-23T03:49:30.298Z,9.20
2022-10-23T03:52:07.052Z,11.00
2022-10-23T03:54:36.045Z,11.20
2022-10-23T03:57:05.157Z,9.60
2022-10-23T03:59:35.688Z,11.20
2022-10-23T04:02:06.864Z,11.80
2022-10-23T04:04:36.672Z,7.80
2022-10-23T04:07:06.989Z,9.40
2022-10-23T04:09:35.844Z,10.20
2022-10-23T04:12:05.796Z,11.60
2022-10-23T04:14:34.494Z,9.00
2022-10-23T04:17:04.066Z,12.00
2022-10-23T04:19:34.771Z,9.80
2022-10-23T04:22:03.937Z,14.80
2022-10-23T04:24:34.156Z,15.00
2022-10-23T04:27:03.448Z,9.60
2022-10-23T04:29:32.611Z,9.80
2022-10-23T04:32:01.374Z,8.80
2022-10-23T04:34:30.233Z,9.00
2022-10-23T04:36:59.998Z,10.20
2022-10-23T04:39:28.688Z,9.40
2022-10-23T04:41:59.007Z,9.40
2022-10-23T04:44:30.556Z,10.00
2022-10-23T04:46:58.971Z,9.80
2022-10-23T04:49:27.652Z,9.80
2022-10-23T04:52:15.418Z,9.60
2022-10-23T04:55:10.205Z,8.80
2022-10-23T04:57:47.721Z,9.00
2022-10-23T05:00:18.386Z,10.20
2022-10-23T05:02:53.229Z,10.20
2022-10-23T05:05:23.057Z,8.80
2022-10-23T05:08:15.544Z,11.00
2022-10-23T05:11:05.805Z,21.60
2022-10-23T05:13:41.338Z,49.25
2022-10-23T05:16:11.629Z,15.00
2022-10-23T05:18:46.817Z,40.50
2022-10-23T05:21:20.619Z,17.80
2022-10-23T05:23:51.937Z,17.60
2022-10-23T05:26:22.373Z,16.00
2022-10-23T05:28:55.333Z,13.60
2022-10-23T05:31:25.684Z,11.00
2022-10-23T05:34:03.151Z,93.50
2022-10-23T05:36:32.970Z,18.60
2022-10-23T05:39:03.303Z,20.60
2022-10-23T05:41:33.770Z,9.40
2022-10-23T05:44:05.513Z,11.40
2022-10-23T05:46:54.456Z,11.80
2022-10-23T05:49:41.777Z,12.60
2022-10-23T05:52:29.090Z,47.00
2022-10-23T05:55:16.085Z,23.00
2022-10-23T05:58:17.308Z,14.40
2022-10-23T06:01:09.160Z,21.60
2022-10-23T06:03:54.965Z,22.80
2022-10-23T06:06:30.317Z,13.00
2022-10-23T06:08:59.094Z,15.80
2022-10-23T06:11:27.795Z,17.60
2022-10-23T06:14:05.397Z,11.40
2022-10-23T06:16:35.324Z,11.00
2022-10-23T06:19:04.443Z,13.20
2022-10-23T06:21:38.138Z,53.50
2022-10-23T06:24:08.652Z,46.00
2022-10-23T06:26:50.973Z,21.00
2022-10-23T06:29:24.028Z,18.60
2022-10-23T06:31:54.456Z,12.80
2022-10-23T06:34:23.484Z,14.40
2022-10-23T06:36:52.413Z,15.00
2022-10-23T06:39:47.733Z,15.80
2022-10-23T06:42:25.611Z,15.20
2022-10-23T06:45:20.321Z,20.00
2022-10-23T06:48:26.577Z,16.80
2022-10-23T06:51:22.465Z,30.20
2022-10-23T06:54:11.376Z,17.60
2022-10-23T06:57:08.999Z,17.20
2022-10-23T06:59:45.924Z,13.80
2022-10-23T07:02:17.558Z,41.50
2022-10-23T07:04:49.384Z,18.80
2022-10-23T07:07:24.226Z,22.00
2022-10-23T07:09:55.286Z,16.40
2022-10-23T07:12:29.937Z,25.00
2022-10-23T07:15:27.784Z,23.60
2022-10-23T07:17:57.605Z,19.40
2022-10-23T07:20:29.779Z,39.50
2022-10-23T07:22:59.087Z,20.40
2022-10-23T07:25:38.944Z,24.40
2022-10-23T07:28:14.956Z,22.20
2022-10-23T07:31:04.018Z,22.00
2022-10-23T07:34:02.079Z,35.40
2022-10-23T07:36:34.630Z,20.80
2022-10-23T07:39:07.675Z,19.60
2022-10-23T07:41:46.267Z,20.60
2022-10-23T07:44:16.164Z,24.40
2022-10-23T07:47:10.196Z,19.00
2022-10-23T07:49:43.557Z,50.75
2022-10-23T07:52:18.330Z,27.80
2022-10-23T07:55:31.454Z,27.40
2022-10-23T08:01:19.868Z,20.00
2022-10-23T08:03:49.942Z,20.00
2022-10-23T08:06:21.608Z,37.25
2022-10-23T08:09:03.880Z,20.60
2022-10-23T08:11:57.434Z,22.20
2022-10-23T08:14:29.660Z,52.00
2022-10-23T08:16:59.773Z,25.00
2022-10-23T08:20:03.864Z,21.20
2022-10-23T08:22:40.848Z,21.60
2022-10-23T08:25:12.468Z,21.60
2022-10-23T08:27:45.027Z,21.20
2022-10-23T08:30:18.272Z,25.40
2022-10-23T08:32:56.407Z,17.40
2022-10-23T09:29:22.588Z,20.60
2022-10-23T09:31:53.363Z,17.00
2022-10-23T09:34:25.104Z,20.80
2022-10-23T09:39:31.873Z,16.40
2022-10-23T09:42:02.777Z,16.80
2022-10-23T09:44:34.347Z,16.80
2022-10-23T09:47:12.278Z,16.80
2022-10-23T09:49:47.574Z,13.40
2022-10-23T09:52:31.062Z,15.00
2022-10-23T09:55:02.905Z,10.20
2022-10-23T09:57:37.135Z,12.00
2022-10-23T10:00:17.366Z,8.40
2022-10-23T10:02:57.335Z,11.20
2022-10-23T10:05:45.896Z,13.00
2022-10-23T15:33:06.808Z,26.75
2022-10-23T15:35:35.678Z,29.50
2022-10-23T15:38:04.089Z,26.75
2022-10-23T15:40:32.788Z,26.75
2022-10-23T15:43:02.704Z,28.00
2022-10-23T15:45:31.981Z,30.00
2022-10-23T15:48:00.890Z,25.80
2022-10-23T15:50:31.036Z,30.60
2022-10-23T15:52:59.535Z,25.60
2022-10-23T15:55:29.060Z,26.00
2022-10-23T15:58:01.944Z,31.25
2022-10-23T16:00:30.757Z,31.50
2022-10-23T16:02:59.283Z,33.50
2022-10-23T16:05:28.373Z,35.25
2022-10-23T16:07:58.238Z,36.50
2022-10-23T16:10:26.860Z,45.25
2022-10-23T16:12:55.380Z,33.40
2022-10-23T16:15:24.089Z,30.20
2022-10-23T16:17:52.602Z,27.40
2022-10-23T16:20:21.708Z,30.20
2022-10-23T16:22:50.181Z,20.60
2022-10-23T16:25:20.253Z,39.00
2022-10-23T16:27:49.139Z,22.00
2022-10-23T16:30:17.799Z,24.80
2022-10-23T16:32:46.393Z,26.40
2022-10-23T16:35:15.013Z,21.60
2022-10-23T16:37:57.368Z,14.60
2022-10-23T16:40:27.871Z,22.60
2022-10-23T16:43:14.674Z,15.20
2022-10-23T16:45:48.366Z,18.60
2022-10-23T16:48:16.932Z,22.00
2022-10-23T16:50:45.660Z,23.60
2022-10-23T16:53:14.261Z,22.80
2022-10-23T16:55:44.383Z,21.80
2022-10-23T16:58:12.976Z,24.00
2022-10-23T17:00:41.745Z,19.60
2022-10-23T17:03:10.849Z,27.40
2022-10-23T17:05:39.469Z,22.20
2022-10-23T17:08:08.011Z,20.20
2022-10-23T17:10:36.893Z,19.60
2022-10-23T17:13:06.795Z,20.20
2022-10-23T17:15:35.597Z,19.60
2022-10-23T17:18:04.063Z,36.75
2022-10-23T17:20:33.079Z,35.00
2022-10-23T17:23:01.395Z,30.25
2022-10-23T17:25:30.268Z,26.60
2022-10-23T17:27:58.825Z,22.40
2022-10-23T17:30:29.003Z,26.00
2022-10-23T17:32:59.562Z,26.00
2022-10-23T17:35:30.642Z,27.20
2022-10-23T17:37:59.593Z,31.75
2022-10-23T17:40:30.866Z,31.50
2022-10-23T17:42:59.742Z,24.25
2022-10-23T17:45:31.068Z,29.00
2022-10-23T17:47:59.702Z,36.50
2022-10-23T17:50:30.948Z,34.25
2022-10-23T17:53:01.153Z,33.75
2022-10-23T17:55:50.746Z,30.00
2022-10-23T17:58:19.688Z,32.00
2022-10-23T18:00:54.895Z,30.00
2022-10-23T18:03:23.474Z,29.50
2022-10-23T18:05:52.298Z,27.00
2022-10-23T18:08:21.133Z,31.75
2022-10-23T18:10:50.978Z,26.75
2022-10-23T18:13:19.569Z,27.75
2022-10-23T18:15:48.453Z,29.25
2022-10-23T18:18:18.530Z,32.00
2022-10-23T18:20:49.873Z,28.75
2022-10-23T18:23:19.464Z,26.40
2022-10-23T18:25:48.399Z,28.75
2022-10-23T18:28:16.993Z,32.00
2022-10-23T18:30:47.250Z,30.25
2022-10-23T18:33:20.265Z,22.25
2022-10-23T18:35:49.634Z,30.40
2022-10-23T18:38:18.157Z,33.75
2022-10-23T18:40:46.866Z,31.60
2022-10-23T18:43:20.009Z,29.00
2022-10-23T18:46:00.433Z,29.00
2022-10-23T18:48:30.906Z,28.20
2022-10-23T18:50:59.654Z,31.50
2022-10-23T18:53:29.924Z,28.60
2022-10-23T18:55:58.647Z,29.60
2022-10-23T18:58:27.875Z,32.20
2022-10-23T19:00:56.527Z,30.00
2022-10-23T19:03:24.900Z,29.20
2022-10-23T19:05:54.881Z,29.40
2022-10-23T19:08:23.288Z,41.00
2022-10-23T19:10:53.978Z,43.25
2022-10-23T19:13:22.457Z,41.00
2022-10-23T19:15:51.497Z,35.75
2022-10-23T19:18:20.019Z,31.00
2022-10-23T19:20:48.827Z,32.25
2022-10-23T19:23:18.559Z,31.00
2022-10-23T19:25:48.291Z,34.75
2022-10-23T19:28:17.177Z,35.25
2022-10-23T19:30:45.788Z,31.75
2022-10-23T19:33:14.491Z,34.00
2022-10-23T19:35:43.767Z,30.60
2022-10-23T19:38:13.175Z,32.20
2022-10-23T19:40:43.317Z,28.00
2022-10-23T19:43:11.822Z,32.80
2022-10-23T19:45:47.577Z,28.00
2022-10-23T19:48:23.905Z,26.60
2022-10-23T19:50:53.465Z,32.20
2022-10-23T19:53:24.591Z,30.40
2022-10-23T19:56:02.955Z,40.75
2022-10-23T19:58:31.724Z,26.40
2022-10-23T20:01:07.422Z,30.60
2022-10-23T20:03:36.363Z,22.40
2022-10-23T20:06:05.192Z,26.60
2022-10-23T20:08:35.076Z,26.00
2022-10-23T20:11:06.216Z,19.60
2022-10-23T20:13:35.513Z,29.20
2022-10-23T20:16:04.472Z,26.60
2022-10-23T20:18:32.834Z,24.60
2022-10-23T20:21:03.351Z,25.60
2022-10-23T20:23:32.716Z,24.00
2022-10-23T20:26:09.483Z,31.00
2022-10-23T20:28:40.676Z,26.80
2022-10-23T20:31:11.993Z,11.40
2022-10-23T20:34:13.591Z,24.20
2022-10-23T20:36:48.230Z,22.40
2022-10-23T20:39:20.323Z,22.00
2022-10-23T20:41:51.050Z,31.00
2022-10-23T20:44:20.956Z,29.40
2022-10-23T20:46:50.767Z,26.20
2022-10-23T20:49:20.545Z,26.00
2022-10-23T20:51:54.978Z,25.60
2022-10-23T20:54:28.932Z,31.40
2022-10-23T20:57:00.640Z,28.00
2022-10-23T21:00:02.209Z,27.20
2022-10-23T21:03:40.040Z,31.80
2022-10-23T21:07:11.136Z,24.40
2022-10-23T21:10:12.947Z,31.00
2022-10-23T21:12:44.293Z,24.20
2022-10-23T21:15:36.545Z,22.20
2022-10-23T21:18:26.452Z,29.20
2022-10-23T21:21:05.368Z,38.50
2022-10-23T21:23:35.585Z,37.20
2022-10-23T21:26:10.427Z,32.75
2022-10-23T21:28:55.696Z,32.50
2022-10-23T21:32:01.027Z,26.40
2022-10-23T21:34:34.951Z,25.40
2022-10-23T21:37:14.493Z,27.40
2022-10-23T21:39:47.190Z,29.60
2022-10-23T21:42:20.695Z,29.00
2022-10-23T21:44:58.153Z,23.00
2022-10-23T21:47:51.934Z,26.00
2022-10-23T21:50:24.130Z,30.60
2022-10-23T21:52:58.390Z,28.20
2022-10-23T21:55:29.627Z,21.80
2022-10-23T21:58:20.640Z,18.20
2022-10-23T22:00:57.795Z,25.20
2022-10-23T22:03:30.663Z,21.20
2022-10-23T22:06:07.792Z,30.60
2022-10-23T22:09:01.523Z,25.00
2022-10-23T22:11:46.184Z,25.20
2022-10-23T22:14:33.517Z,26.40
2022-10-23T22:17:34.465Z,23.60
2022-10-23T22:20:34.978Z,27.60
2022-10-23T22:23:09.960Z,29.60
2022-10-23T22:25:55.601Z,31.60
2022-10-23T22:28:25.926Z,23.40
2022-10-23T22:30:57.146Z,21.20
2022-10-23T22:33:28.922Z,22.60
2022-10-23T22:36:03.621Z,25.60
2022-10-23T22:38:56.363Z,30.25
2022-10-23T22:41:30.450Z,26.80
2022-10-23T22:44:05.026Z,16.60
2022-10-23T22:46:36.413Z,29.25
2022-10-23T22:49:07.557Z,26.00
2022-10-23T22:51:43.040Z,23.20
2022-10-23T22:54:20.075Z,16.40
2022-10-23T22:57:10.467Z,22.20
2022-10-23T23:00:04.735Z,25.60
2022-10-23T23:02:37.575Z,25.40
2022-10-23T23:05:13.587Z,18.40
2022-10-23T23:07:45.856Z,14.60
2022-10-23T23:10:22.993Z,19.00
2022-10-23T23:13:22.040Z,24.80
2022-10-23T23:23:16.995Z,23.40
2022-10-23T23:26:03.771Z,17.80
2022-10-23T23:29:09.194Z,19.00
2022-10-23T23:31:42.332Z,17.40
2022-10-23T23:34:12.775Z,18.00
2022-10-23T23:36:47.874Z,15.60
2022-10-23T23:39:18.685Z,13.00
2022-10-23T23:41:48.060Z,17.00
2022-10-23T23:44:50.268Z,15.00
2022-10-23T23:47:36.930Z,17.40
2022-10-23T23:50:08.859Z,16.80
2022-10-23T23:52:47.981Z,15.00
2022-10-23T23:55:24.232Z,16.40
2022-10-23T23:57:55.089Z,14.60
